スィクティフカル の空港の天気 - METARとTAF

Syktyvkar ( UUYY / SCW ) - ロシア スィクティフカル
飛行場実況気象(Metar)
観測時間05/28 14:00 MSK (05/28 11:00 UTC)
風向・風速東南東 6m/s
視程10km以上
天気現象
全天の4割程度の雲 雲底高度 1310m
気温20℃
湿度35%
気圧999hPa
METARUUYY 281100Z 12006MPS 9999 SCT043 20/04 Q0999 R36/61D NOSIG RMK QFE740/0987
過去の天気等 Google飛行場航空写真 Wunderground天気予報

過去48時間のMETAR

飛行場予報(TAF)
発表時間: 5/28 11:00 MSK (5/28 08:00 UTC)
予報対象時間: 28日12時 MSK ~ 29日12時 MSK
風向・風速東 6m/s 瞬間風速 14m/s
視程10km以上
全天の8割程度の積乱雲 雲底高度 610m
28日12時 MSK ~ 28日21時 MSK に一時的に
風向・風速東南東 8m/s 瞬間風速 18m/s
視程6000m
天気現象弱い雷雨
少しの雲 雲底高度 340m
全天の8割程度の積乱雲 雲底高度 490m
28日21時 MSK ~ 28日22時 MSK に徐々に
風向・風速南南東 3m/s
28日23時 MSK ~ 29日6時 MSK に一時的に
視程300m
天気現象
全天を覆う雲 鉛直視程 90m
29日6時 MSK ~ 29日7時 MSK に徐々に
風向・風速西南西 3m/s 瞬間風速 10m/s
TAF UUYY 280800Z 2809/2909 10006G14MPS 9999 BKN020CB
TEMPO 2809/2818 11008G18MPS 6000 -TSRA FEW011 BKN016CB
BECMG 2818/2819 15003MPS
TEMPO 2820/2903 0300 FG VV003
BECMG 2903/2904 25003G10MPS